Alpine Airstrip, AK

12:30 AM AKDT on July 24, 2014 (GMT -0800)
Nuiqsut (PAQT) Elev 39 ft | 70.21 °N, 150.99 °W | Change Station

Current weather conditions updated 37 minutes ago

Overcast
Overcast
46 °F
Feels Like 42 °F
N
8
Wind Variable Wind from WSW

Today is forecast to be nearly the same temperature as yesterday.

Today
High -- | Low -- °F
--% Chance of Precip.
Yesterday
High -- | Low -- °F
Precip. -- in
2:42 AM 1:37 AM
Waning Crescent, 6% visible
Pressure 29.60 in
Visibility 10.0 miles
Clouds Mostly Cloudy 3300 ft
Mostly Cloudy 4200 ft
Overcast 5000 ft
Windchill 42 °F
Dew Point 44 °F
Humidity 93%
Rainfall 0.09 in
Snow Depth Not available.
UV 0 out of 12
Pollen Not available.
Air Quality Not available.
Flu Activity Not available.
METAR PAQT 240753Z AUTO 25007KT 10SM BKN033 BKN042 OVC050 08/07 A2960 RMK SLP024 T00780067 TSNO $ VIA AUTODIAL

More Conditions Fewer Conditions

Pressure 29.60 in
Visibility 10.0 miles
Clouds Mostly Cloudy 3300 ft
Mostly Cloudy 4200 ft
Overcast 5000 ft
Windchill 42 °F
Dew Point 44 °F
Humidity 93%
Rainfall 0.09 in
Snow Depth Not available.
UV 0 out of 12
Pollen Not available.
Air Quality Not available.
Flu Activity Not available.
METAR PAQT 240753Z AUTO 25007KT 10SM BKN033 BKN042 OVC050 08/07 A2960 RMK SLP024 T00780067 TSNO $ VIA AUTODIAL

More Conditions Fewer Conditions

10-Day Weather Forecast

Almanac

Astronomy

Jul. 24, 2014 Rise Set
Actual Time 2:42 AM AKDT 1:37 AM AKDT
Civil Twilight Sun does not rise Sun does not rise
Nautical Twilight Sun does not rise Sun does not rise
Astronomical Twilight Sun does not rise Sun does not rise
Moon 1:27 AM AKDT 11:03 PM AKDT
Length of Visible Light 24h 00m
Length of Day
22h 55m
Tomorrow will be 0m 0s shorter.
Waning Crescent, 6% of the Moon is Illuminated
Today
Waning Crescent
Jul 26
New
Aug 3
First Quarter
Aug 10
Full
Aug 17
Last Quarter

Today's Extremes

State Highs State Lows

Community

WunderPhotos

Upload Photos

1,736,950 photos uploaded!

Nearby

Snow Depth

Station Depth Elevation
Imnaviat Creek 0 in 3050 ft
Atigun Pass 0 in 4800 ft
Coldfoot 0 in 1040 ft
Gobblers Knob 0 in 2030 ft
Fort Yukon 3 in 430 ft

Earthquake Activity

City Distance Mag. Time & Date
No recent earthquake activity has been reported nearby.
Minimum magnitude displayed is 2.5.

Coastal Water Temperatures

Place Temperature
No Stations Reporting

Nearby Weather Stations

Station Location Temp. Windchill Dew Point Humidity Wind Precip. Elev Updated Type
HADS JUDY CREEK NEAR NUIQSUT 17W , Barrow, AK 45 °F 45 °F - - North  at  - 0.00 in / hr 42 ft 11:00 PM AKDT MADIS

Show More Stations Show Fewer Stations